Time;durP1;ratioP1;P1;durP2;ratioP2;P2;SDS_P1;SDS_P2;PMS_P1;PMS_P2;Temp;Humidity;BMP_temperature;BMP_pressure;BME280_temperature;BME280_humidity;BME280_pressure;Samples;Min_cycle;Max_cycle;Signal;HPM_P1;HPM_P2
2022/12/25 00:01:21;;;;;;;45.40;27.08;;;22.10;62.50;;;;;;5077961;28;20089;-68
2022/12/25 00:03:47;;;;;;;47.88;28.58;;;22.10;62.40;;;;;;5071652;28;20041;-69
2022/12/25 00:06:13;;;;;;;45.53;28.85;;;22.00;62.30;;;;;;5071850;28;20036;-69
2022/12/25 00:08:39;;;;;;;42.55;27.55;;;22.10;62.40;;;;;;5071145;28;20060;-69
2022/12/25 00:11:09;;;;;;;43.72;27.55;;;22.10;62.50;;;;;;5070490;28;20039;-69
2022/12/25 00:13:35;;;;;;;42.65;26.33;;;22.10;62.50;;;;;;5049285;28;20056;-69
2022/12/25 00:16:06;;;;;;;45.60;28.17;;;22.00;62.30;;;;;;5058036;28;20028;-69
2022/12/25 00:18:32;;;;;;;49.03;28.90;;;22.00;62.30;;;;;;5072872;28;20485;-68
2022/12/25 00:21:03;;;;;;;45.25;28.75;;;22.00;62.30;;;;;;5074945;28;20041;-69
2022/12/25 00:23:30;;;;;;;41.42;27.63;;;22.10;62.20;;;;;;5075088;28;20060;-68
2022/12/25 00:25:56;;;;;;;49.03;29.92;;;22.00;62.20;;;;;;5075073;28;20024;-68
2022/12/25 00:28:23;;;;;;;46.63;29.58;;;22.00;62.20;;;;;;5067158;28;20028;-68
2022/12/25 00:30:50;;;;;;;47.58;30.75;;;22.00;62.20;;;;;;5054849;28;20059;-69
2022/12/25 00:33:16;;;;;;;50.85;29.05;;;22.10;62.30;;;;;;5054745;28;20044;-68
2022/12/25 00:35:42;;;;;;;43.85;28.48;;;22.10;62.20;;;;;;5054422;28;20424;-68
2022/12/25 00:38:09;;;;;;;47.22;28.77;;;22.10;62.00;;;;;;5061234;28;20111;-69
2022/12/25 00:40:42;;;;;;;48.22;29.25;;;22.10;61.60;;;;;;5074893;28;20029;-69
2022/12/25 00:43:08;;;;;;;;;;;22.10;61.80;;;;;;5055962;28;20028;-69
2022/12/25 00:45:33;;;;;;;44.95;28.58;;;22.00;61.50;;;;;;5059161;28;19909;-69
2022/12/25 00:47:59;;;;;;;48.92;28.55;;;22.10;61.60;;;;;;5037438;28;20708;-69
2022/12/25 00:50:25;;;;;;;41.50;27.98;;;22.00;61.50;;;;;;5055247;28;20480;-69
2022/12/25 00:52:52;;;;;;;43.15;27.95;;;21.90;61.50;;;;;;5055522;28;20580;-69
2022/12/25 00:55:17;;;;;;;43.15;27.48;;;22.00;61.40;;;;;;5055591;28;20072;-69
2022/12/25 00:57:43;;;;;;;44.85;29.85;;;21.90;61.40;;;;;;5055242;28;20057;-69
2022/12/25 01:00:10;;;;;;;46.28;28.63;;;21.90;61.30;;;;;;5065784;28;20033;-69
2022/12/25 01:02:36;;;;;;;44.10;27.00;;;21.80;61.20;;;;;;5023054;28;20036;-69
2022/12/25 01:05:03;;;;;;;46.53;27.27;;;21.80;61.10;;;;;;5060911;28;20374;-68
2022/12/25 01:07:29;;;;;;;40.83;27.13;;;21.80;61.00;;;;;;5055048;28;20495;-69
2022/12/25 01:12:41;;;;;;;48.47;28.83;;;21.90;61.30;;;;;;5061083;28;20032;-69
2022/12/25 01:15:09;;;;;;;44.03;28.67;;;21.80;61.10;;;;;;5058943;28;20032;-69
2022/12/25 01:17:35;;;;;;;45.13;28.75;;;21.80;61.00;;;;;;5075255;28;20112;-69
2022/12/25 01:20:02;;;;;;;43.67;28.23;;;21.80;60.90;;;;;;5074767;28;20544;-69
2022/12/25 01:22:28;;;;;;;45.42;26.88;;;21.80;60.80;;;;;;5075099;28;20029;-69
2022/12/25 01:24:54;;;;;;;48.88;30.88;;;21.80;60.70;;;;;;5074795;28;20373;-68
2022/12/25 01:27:21;;;;;;;47.05;29.92;;;21.80;60.70;;;;;;5073230;28;20390;-69
2022/12/25 01:29:47;;;;;;;45.10;28.85;;;21.80;60.50;;;;;;5067019;28;20063;-69
2022/12/25 01:32:13;;;;;;;51.63;29.92;;;21.90;60.50;;;;;;5074524;28;20068;-69
2022/12/25 01:34:39;;;;;;;44.08;28.40;;;21.80;60.20;;;;;;5074383;28;20449;-69
2022/12/25 01:37:06;;;;;;;45.40;28.00;;;21.90;60.20;;;;;;5074147;28;20111;-69
2022/12/25 01:39:32;;;;;;;42.28;26.92;;;21.90;60.10;;;;;;5074437;28;20386;-69
2022/12/25 01:41:58;;;;;;;42.70;27.75;;;21.90;60.00;;;;;;5055208;28;20083;-69
2022/12/25 01:44:36;;;;;;;44.65;27.40;;;21.90;59.90;;;;;;5064680;28;20440;-69
2022/12/25 01:47:03;;;;;;;46.88;29.10;;;21.90;59.90;;;;;;5057851;28;20021;-69
2022/12/25 01:49:31;;;;;;;44.40;28.38;;;21.80;59.80;;;;;;5054364;28;20093;-69
2022/12/25 01:52:03;;;;;;;50.45;31.10;;;21.80;59.90;;;;;;5054259;28;20037;-69
2022/12/25 01:54:33;;;;;;;48.60;29.58;;;21.80;59.80;;;;;;5054581;28;20041;-69
2022/12/25 01:57:03;;;;;;;47.33;30.08;;;21.70;59.80;;;;;;5054511;28;20044;-68
2022/12/25 01:59:29;;;;;;;48.83;30.42;;;21.70;59.70;;;;;;5077690;28;20032;-69
2022/12/25 02:01:56;;;;;;;50.47;29.75;;;21.80;59.80;;;;;;5058798;28;20057;-69
2022/12/25 02:04:37;;;;;;;51.15;30.33;;;21.60;59.60;;;;;;5054254;28;20032;-69
2022/12/25 02:07:19;;;;;;;50.08;31.45;;;21.70;59.90;;;;;;5053931;28;20076;-69
2022/12/25 02:09:45;;;;;;;49.35;30.10;;;21.70;59.80;;;;;;5053920;28;20041;-69
2022/12/25 02:12:19;;;;;;;49.53;30.45;;;21.80;59.80;;;;;;5064486;28;20115;-69
2022/12/25 02:14:46;;;;;;;46.63;30.08;;;21.70;59.60;;;;;;5043205;28;20701;-69
2022/12/25 02:17:21;;;;;;;46.17;30.15;;;21.70;59.60;;;;;;5070834;28;20033;-69
2022/12/25 02:20:18;;;;;;;49.08;30.20;;;21.60;59.50;;;;;;5072145;28;20031;-69
2022/12/25 02:23:02;;;;;;;45.38;29.20;;;21.60;59.50;;;;;;5053824;28;20060;-69
2022/12/25 02:25:59;;;;;;;52.42;31.58;;;21.60;59.40;;;;;;5067525;28;20129;-69
2022/12/25 02:28:49;;;;;;;42.95;28.88;;;21.60;59.50;;;;;;5054529;28;20044;-69
2022/12/25 02:31:30;;;;;;;50.70;30.83;;;21.70;59.60;;;;;;5035960;28;20048;-69
2022/12/25 02:34:24;;;;;;;44.03;30.23;;;21.70;59.60;;;;;;5053583;28;20036;-69
2022/12/25 02:37:06;;;;;;;47.15;27.08;;;21.60;59.40;;;;;;5053220;28;20103;-69
2022/12/25 02:40:10;;;;;;;48.38;29.75;;;21.70;59.40;;;;;;5053800;28;20036;-69
2022/12/25 03:08:30;;;;;;;43.40;28.40;;;21.70;58.80;;;;;;4933014;29;20070;-69
2022/12/25 03:13:49;;;;;;;39.13;28.20;;;21.60;58.80;;;;;;4917212;29;20047;-69
2022/12/25 03:26:53;;;;;;;48.22;29.25;;;21.60;58.90;;;;;;4929915;28;20049;-69
2022/12/25 03:27:16;;;;;;;41.47;27.50;;;21.50;59.00;;;;;;5054723;28;20032;-69
2022/12/25 03:32:57;;;;;;;41.22;26.55;;;21.40;59.00;;;;;;5052852;28;20078;-69
2022/12/25 03:35:32;;;;;;;41.92;26.15;;;21.50;59.10;;;;;;5054551;28;20044;-69
2022/12/25 04:36:55;;;;;;;42.75;28.08;;;21.80;57.90;;;;;;5086042;28;20072;-69
2022/12/25 04:39:21;;;;;;;41.70;26.27;;;21.90;57.90;;;;;;5092012;28;20173;-69
2022/12/25 04:41:47;;;;;;;26.38;19.23;;;21.90;57.90;;;;;;5088186;28;20536;-69
2022/12/25 04:44:13;;;;;;;32.53;21.35;;;21.90;57.80;;;;;;5076420;28;20173;-69
2022/12/25 04:46:39;;;;;;;30.58;19.80;;;22.00;57.80;;;;;;5075520;28;20069;-69
2022/12/25 04:49:05;;;;;;;24.42;17.63;;;22.10;57.80;;;;;;5071764;28;20056;-69
2022/12/25 04:51:31;;;;;;;14.13;10.10;;;22.00;57.60;;;;;;5071900;28;20134;-69
2022/12/25 04:53:57;;;;;;;13.18;8.45;;;22.00;57.50;;;;;;5071298;28;20477;-69
2022/12/25 04:56:23;;;;;;;10.55;7.43;;;22.10;57.50;;;;;;5070723;28;20052;-69
2022/12/25 04:58:49;;;;;;;10.55;6.43;;;22.20;57.10;;;;;;5073737;28;20032;-69
2022/12/25 05:01:15;;;;;;;5.95;4.78;;;22.10;57.00;;;;;;5075742;28;20094;-69
2022/12/25 05:03:41;;;;;;;6.10;4.70;;;22.10;56.90;;;;;;5063262;28;20558;-69
2022/12/25 05:06:08;;;;;;;5.32;4.30;;;22.20;56.90;;;;;;5093479;28;20031;-69
2022/12/25 05:08:34;;;;;;;5.32;4.45;;;22.10;57.00;;;;;;5064540;28;20115;-69
2022/12/25 05:11:07;;;;;;;7.30;4.82;;;22.10;57.00;;;;;;5055325;28;20039;-69
2022/12/25 05:13:33;;;;;;;7.95;4.40;;;22.10;57.20;;;;;;5067693;28;20119;-69
2022/12/25 05:15:59;;;;;;;7.80;4.70;;;22.10;56.30;;;;;;5055266;28;20035;-69
2022/12/25 05:18:25;;;;;;;3.70;3.40;;;22.10;57.20;;;;;;5037782;28;20033;-69
2022/12/25 05:20:53;;;;;;;5.15;3.83;;;22.10;57.00;;;;;;5055272;28;20033;-69
2022/12/25 05:23:19;;;;;;;3.95;2.97;;;22.20;56.60;;;;;;5055479;28;20033;-69
2022/12/25 05:25:45;;;;;;;4.13;3.42;;;22.20;56.50;;;;;;5055196;28;20047;-69
2022/12/25 05:28:11;;;;;;;5.85;3.17;;;22.30;56.50;;;;;;5074693;28;20062;-69
2022/12/25 05:30:37;;;;;;;4.32;3.15;;;22.40;56.50;;;;;;5071066;28;20036;-69
2022/12/25 05:33:03;;;;;;;3.72;3.42;;;22.30;56.40;;;;;;5057176;28;20224;-69
2022/12/25 05:35:30;;;;;;;3.17;2.90;;;22.40;56.50;;;;;;5075085;28;20062;-69
2022/12/25 05:37:56;;;;;;;6.13;3.95;;;22.30;56.50;;;;;;5074833;28;20489;-69
2022/12/25 05:40:22;;;;;;;5.20;3.50;;;22.40;56.00;;;;;;5074438;28;20117;-69
2022/12/25 05:42:48;;;;;;;3.65;3.30;;;22.40;56.30;;;;;;5061068;28;20629;-69
2022/12/25 05:45:14;;;;;;;3.35;3.05;;;22.50;55.90;;;;;;5056260;28;20124;-69
2022/12/25 05:47:40;;;;;;;6.10;3.15;;;22.30;56.20;;;;;;5039568;28;20040;-69
2022/12/25 05:50:07;;;;;;;3.33;2.78;;;22.40;56.20;;;;;;5074831;28;20032;-69
2022/12/25 05:52:33;;;;;;;3.47;2.90;;;22.30;55.80;;;;;;5074517;28;20028;-69
2022/12/25 05:55:00;;;;;;;3.08;2.70;;;22.30;56.40;;;;;;5079464;28;20043;-69
2022/12/25 05:57:29;;;;;;;7.07;3.00;;;22.30;56.40;;;;;;5076393;28;20060;-69
2022/12/25 05:59:56;;;;;;;3.65;3.10;;;22.30;56.40;;;;;;5074721;28;20032;-69
2022/12/25 06:02:22;;;;;;;4.22;3.58;;;22.30;56.00;;;;;;5059931;28;20028;-69
2022/12/25 06:04:48;;;;;;;4.30;2.88;;;22.20;56.30;;;;;;5074394;28;20040;-69
2022/12/25 06:07:14;;;;;;;2.92;2.72;;;22.20;56.60;;;;;;5074645;28;20039;-69
2022/12/25 06:09:40;;;;;;;8.23;3.17;;;22.30;56.40;;;;;;5073931;28;20040;-69
2022/12/25 06:12:06;;;;;;;3.55;3.13;;;22.30;56.50;;;;;;5073615;28;20039;-71
2022/12/25 06:14:32;;;;;;;2.92;2.63;;;22.20;56.50;;;;;;5058572;28;20095;-71
2022/12/25 06:16:58;;;;;;;5.38;2.78;;;22.40;56.40;;;;;;5056435;28;20359;-71
2022/12/25 06:19:24;;;;;;;3.70;2.80;;;22.20;57.40;;;;;;5060110;28;20542;-71
2022/12/25 06:21:54;;;;;;;4.18;2.80;;;22.20;57.90;;;;;;5056023;28;20474;-71
2022/12/25 06:24:21;;;;;;;3.42;3.10;;;22.30;58.50;;;;;;5044073;28;20476;-71
2022/12/25 06:26:48;;;;;;;3.50;2.67;;;22.20;58.60;;;;;;5053867;28;20025;-71
2022/12/25 06:29:14;;;;;;;3.22;2.92;;;22.10;58.90;;;;;;5061091;28;20068;-70
2022/12/25 06:31:40;;;;;;;4.60;3.70;;;22.30;59.30;;;;;;5059244;28;20033;-70
2022/12/25 06:34:07;;;;;;;2.63;2.38;;;21.90;53.90;;;;;;5054402;28;20063;-70
2022/12/25 06:36:33;;;;;;;3.00;2.70;;;22.20;58.50;;;;;;5064338;28;20509;-69
2022/12/25 06:39:00;;;;;;;3.42;3.05;;;22.20;49.60;;;;;;5061830;28;20029;-72
2022/12/25 06:41:28;;;;;;;2.83;2.55;;;22.20;47.20;;;;;;5056585;28;20040;-70
2022/12/25 06:43:57;;;;;;;4.45;3.03;;;22.20;46.10;;;;;;5052478;28;20033;-73
2022/12/25 06:46:25;;;;;;;3.13;2.63;;;22.20;45.80;;;;;;5055462;28;20032;-72
2022/12/25 06:48:51;;;;;;;9.88;3.05;;;22.20;47.40;;;;;;5054283;28;20564;-72
2022/12/25 06:51:22;;;;;;;5.13;3.75;;;22.30;47.40;;;;;;5069061;28;20021;-70
2022/12/25 06:53:49;;;;;;;7.60;5.93;;;22.40;45.40;;;;;;5052145;28;20043;-71
2022/12/25 06:56:18;;;;;;;8.90;6.35;;;22.40;47.00;;;;;;5053003;28;20040;-70
2022/12/25 06:58:47;;;;;;;13.13;9.48;;;22.50;46.00;;;;;;5070044;28;20025;-72
2022/12/25 07:01:23;;;;;;;4.70;3.28;;;22.60;45.50;;;;;;5049155;28;20027;-72
2022/12/25 07:03:56;;;;;;;5.57;2.97;;;22.50;45.10;;;;;;5066896;28;20032;-75
2022/12/25 07:06:23;;;;;;;2.90;2.70;;;22.60;47.40;;;;;;5052283;28;20116;-73
2022/12/25 07:08:49;;;;;;;3.20;2.58;;;22.60;57.60;;;;;;5051871;28;20049;-71
2022/12/25 07:11:15;;;;;;;3.22;2.92;;;22.80;58.40;;;;;;5064602;28;20118;-69
2022/12/25 07:13:41;;;;;;;3.50;2.80;;;22.80;58.90;;;;;;5071672;28;20577;-70
2022/12/25 07:16:07;;;;;;;3.22;2.45;;;22.80;63.40;;;;;;5067555;28;20037;-70
2022/12/25 07:18:34;;;;;;;4.28;3.08;;;22.90;60.30;;;;;;5054427;28;20052;-70
2022/12/25 07:21:09;;;;;;;5.90;2.75;;;22.90;57.10;;;;;;5052166;28;20076;-68
2022/12/25 07:23:35;;;;;;;3.33;2.42;;;22.90;60.00;;;;;;5038726;28;20024;-68
2022/12/25 07:26:01;;;;;;;4.72;3.55;;;22.90;60.00;;;;;;5022797;28;20140;-68
2022/12/25 07:28:28;;;;;;;3.00;2.78;;;23.00;60.10;;;;;;5060570;28;20036;-67
2022/12/25 07:30:59;;;;;;;4.35;2.75;;;22.90;61.40;;;;;;5064458;28;20135;-67
2022/12/25 07:33:25;;;;;;;4.45;3.40;;;23.00;64.30;;;;;;5038901;28;20063;-68
2022/12/25 07:35:51;;;;;;;4.22;3.22;;;23.10;64.50;;;;;;5060145;28;20021;-67
2022/12/25 07:38:17;;;;;;;4.30;3.20;;;23.00;58.30;;;;;;5063404;28;20043;-68
2022/12/25 07:40:46;;;;;;;4.45;3.53;;;23.00;62.00;;;;;;5071094;28;20028;-69
2022/12/25 07:43:12;;;;;;;3.00;2.58;;;23.00;59.30;;;;;;5043701;28;20048;-68
2022/12/25 07:45:38;;;;;;;3.30;2.67;;;23.00;59.00;;;;;;5069805;28;20021;-68
2022/12/25 07:48:04;;;;;;;4.63;3.22;;;22.90;58.60;;;;;;5053290;28;20028;-70
2022/12/25 07:50:30;;;;;;;4.78;2.88;;;22.90;57.40;;;;;;5058423;28;20021;-69
2022/12/25 07:52:56;;;;;;;3.53;2.88;;;23.00;58.60;;;;;;5056782;28;20037;-68
2022/12/25 07:55:22;;;;;;;3.63;3.28;;;23.00;58.40;;;;;;5064255;28;20067;-67
2022/12/25 07:57:48;;;;;;;6.05;4.28;;;23.00;58.20;;;;;;5059172;28;20060;-66
2022/12/25 08:00:15;;;;;;;3.50;3.00;;;23.00;57.60;;;;;;5061953;28;20569;-67
2022/12/25 08:02:41;;;;;;;6.97;3.78;;;23.10;58.20;;;;;;5025885;28;20032;-66
2022/12/25 08:05:08;;;;;;;4.55;3.05;;;23.00;56.40;;;;;;5064033;28;20040;-66
2022/12/25 08:07:37;;;;;;;5.47;3.20;;;22.90;59.10;;;;;;5058310;28;20086;-67
2022/12/25 08:10:03;;;;;;;4.07;2.97;;;22.90;59.10;;;;;;5063698;28;20040;-67
2022/12/25 08:12:29;;;;;;;4.30;3.40;;;22.90;59.60;;;;;;5060225;28;20043;-68
2022/12/25 08:14:55;;;;;;;4.68;3.42;;;23.00;58.90;;;;;;5056351;28;20025;-68
2022/12/25 08:17:21;;;;;;;4.00;3.40;;;22.90;57.60;;;;;;5057984;28;20020;-67
2022/12/25 08:19:47;;;;;;;3.60;3.03;;;22.80;56.80;;;;;;5060999;28;20032;-68
2022/12/25 08:22:13;;;;;;;5.57;3.20;;;22.90;58.90;;;;;;5053157;28;20033;-69
2022/12/25 08:24:39;;;;;;;4.53;3.00;;;22.80;58.90;;;;;;5054347;28;20458;-69
2022/12/25 08:27:05;;;;;;;3.13;2.83;;;22.80;58.80;;;;;;5054947;28;20436;-69
2022/12/25 08:29:32;;;;;;;5.95;3.22;;;22.90;58.80;;;;;;5039626;28;20048;-71
2022/12/25 08:31:58;;;;;;;3.33;2.72;;;22.80;58.30;;;;;;5019454;28;20405;-70
2022/12/25 08:34:25;;;;;;;6.47;3.25;;;22.90;57.00;;;;;;5000071;28;20044;-69
2022/12/25 08:36:51;;;;;;;3.05;2.67;;;22.80;57.50;;;;;;5062204;28;20056;-68
2022/12/25 08:39:16;;;;;;;55.83;14.00;;;23.10;52.30;;;;;;5052847;28;20055;-68
2022/12/25 08:41:42;;;;;;;4.65;3.30;;;23.40;53.40;;;;;;5075096;28;20461;-68
2022/12/25 08:44:10;;;;;;;3.42;2.80;;;23.50;45.80;;;;;;5072332;28;20044;-68
2022/12/25 08:46:38;;;;;;;4.15;2.88;;;23.40;43.00;;;;;;5062626;28;20028;-68
2022/12/25 08:49:04;;;;;;;7.60;2.53;;;23.50;43.00;;;;;;5056843;28;20028;-68
2022/12/25 08:51:30;;;;;;;6.63;3.17;;;23.40;41.70;;;;;;5072810;28;20032;-68
2022/12/25 08:53:59;;;;;;;5.15;1.38;;;23.40;40.40;;;;;;5069498;28;20025;-70
2022/12/25 08:56:25;;;;;;;1.63;1.45;;;23.40;46.70;;;;;;5054447;28;20032;-70
2022/12/25 08:58:51;;;;;;;2.83;2.03;;;23.50;53.60;;;;;;5006464;28;20041;-74
2022/12/25 09:01:17;;;;;;;4.47;2.38;;;23.70;53.40;;;;;;5027265;28;20521;-73
2022/12/25 09:03:43;;;;;;;2.55;2.30;;;23.40;53.00;;;;;;5071841;28;20035;-71
2022/12/25 09:06:12;;;;;;;3.20;2.63;;;23.60;52.60;;;;;;5059460;28;20087;-73
2022/12/25 09:08:39;;;;;;;3.47;2.17;;;23.50;52.20;;;;;;5063919;28;20071;-73
2022/12/25 09:11:08;;;;;;;6.18;2.90;;;23.60;51.90;;;;;;5053773;28;20111;-71
2022/12/25 09:13:34;;;;;;;3.42;2.33;;;23.50;50.70;;;;;;5071137;28;20545;-73
2022/12/25 09:16:08;;;;;;;4.95;2.92;;;23.50;51.40;;;;;;5073888;28;20028;-72
2022/12/25 09:18:34;;;;;;;1.88;1.75;;;23.60;51.10;;;;;;5055068;28;20507;-74
2022/12/25 09:21:02;;;;;;;2.65;2.00;;;23.60;50.80;;;;;;5053630;28;20494;-78
2022/12/25 09:23:28;;;;;;;2.92;2.05;;;23.40;50.50;;;;;;5035760;28;20025;-74
2022/12/25 09:25:54;;;;;;;4.25;2.38;;;23.50;50.40;;;;;;5020683;28;20064;-74
2022/12/25 09:28:20;;;;;;;4.43;2.50;;;23.50;50.20;;;;;;5061183;28;20736;-73
2022/12/25 09:30:50;;;;;;;2.55;2.08;;;23.40;50.00;;;;;;5056380;28;20103;-71
2022/12/25 09:33:16;;;;;;;3.08;2.70;;;23.40;49.90;;;;;;5054153;28;20032;-72
2022/12/25 09:35:42;;;;;;;5.38;3.05;;;23.50;49.20;;;;;;5057051;28;20497;-70
2022/12/25 09:38:08;;;;;;;3.83;2.72;;;23.40;46.50;;;;;;5053630;28;20032;-71
2022/12/25 09:40:34;;;;;;;3.58;3.00;;;23.30;44.80;;;;;;5056110;28;20041;-71
2022/12/25 09:43:02;;;;;;;4.22;2.63;;;23.20;43.50;;;;;;5068763;28;20035;-70
2022/12/25 09:45:33;;;;;;;2.40;2.22;;;23.00;44.60;;;;;;5053338;28;20029;-71
2022/12/25 09:47:59;;;;;;;5.93;3.00;;;23.00;45.80;;;;;;5053570;28;20032;-71
2022/12/25 09:50:34;;;;;;;3.38;2.60;;;23.00;45.20;;;;;;5054598;28;20053;-71
2022/12/25 09:53:14;;;;;;;3.13;2.72;;;23.00;45.40;;;;;;5059699;28;20032;-71
2022/12/25 09:55:50;;;;;;;3.30;2.85;;;22.90;48.70;;;;;;5067913;28;20039;-70
2022/12/25 09:58:16;;;;;;;5.22;3.00;;;22.90;47.10;;;;;;5062674;28;20024;-71
2022/12/25 10:00:49;;;;;;;6.55;2.92;;;23.00;49.80;;;;;;5059426;28;20025;-71
2022/12/25 10:03:33;;;;;;;4.80;3.35;;;23.00;51.20;;;;;;5055210;28;20493;-70
2022/12/25 10:06:28;;;;;;;4.13;3.28;;;23.00;50.60;;;;;;5061002;28;20052;-70
2022/12/25 10:09:32;;;;;;;6.25;3.33;;;22.90;48.30;;;;;;5052380;28;20127;-70
2022/12/25 10:12:01;;;;;;;;;;;23.00;49.40;;;;;;5034719;28;20037;-69
2022/12/25 10:14:38;;;;;;;5.78;3.30;;;22.90;51.90;;;;;;5052523;28;20003;-69
2022/12/25 10:17:14;;;;;;;5.13;3.08;;;23.00;50.60;;;;;;5052008;28;20043;-69
2022/12/25 10:19:46;;;;;;;5.03;3.67;;;23.00;50.70;;;;;;5070672;28;20048;-69
2022/12/25 10:22:20;;;;;;;6.15;3.63;;;23.00;52.10;;;;;;5070549;28;20029;-70
2022/12/25 10:24:52;;;;;;;4.80;3.65;;;23.10;50.10;;;;;;5066887;28;20036;-69
2022/12/25 10:27:52;;;;;;;6.22;3.35;;;23.10;53.00;;;;;;5059735;28;20024;-70
2022/12/25 10:30:24;;;;;;;4.43;3.67;;;23.10;54.00;;;;;;4969771;28;20058;-70
2022/12/25 10:32:51;;;;;;;4.45;3.97;;;23.10;51.90;;;;;;4971102;28;20053;-70
2022/12/25 10:35:20;;;;;;;9.02;4.13;;;23.20;53.00;;;;;;4971263;28;20062;-71
2022/12/25 10:37:59;;;;;;;8.27;4.72;;;23.10;51.70;;;;;;4970559;28;20054;-70
2022/12/25 10:40:50;;;;;;;6.50;4.00;;;23.30;51.70;;;;;;4968703;28;20062;-71
2022/12/25 10:43:41;;;;;;;7.00;4.55;;;23.20;51.30;;;;;;4969846;28;20090;-70
2022/12/25 10:46:11;;;;;;;6.90;3.72;;;23.20;52.70;;;;;;4966293;28;20447;-69
2022/12/25 10:48:41;;;;;;;6.60;4.68;;;23.30;54.40;;;;;;4970673;28;20047;-70
2022/12/25 10:51:08;;;;;;;8.38;4.80;;;23.20;54.00;;;;;;4969026;28;20114;-71
2022/12/25 10:53:41;;;;;;;8.73;4.18;;;23.20;52.50;;;;;;4971610;28;20051;-70
2022/12/25 10:56:17;;;;;;;6.55;4.90;;;23.30;52.90;;;;;;4970424;28;20045;-69
2022/12/25 10:58:43;;;;;;;8.73;4.90;;;23.20;51.10;;;;;;4970341;28;20038;-68
2022/12/25 11:01:10;;;;;;;9.57;5.35;;;23.20;52.90;;;;;;4970936;28;20042;-68
2022/12/25 11:03:39;;;;;;;7.15;4.82;;;23.20;53.40;;;;;;4969632;28;20100;-69
2022/12/25 11:06:18;;;;;;;6.97;3.30;;;23.40;54.00;;;;;;4994119;28;20040;-69
2022/12/25 11:08:53;;;;;;;9.52;4.70;;;23.70;51.90;;;;;;5063552;28;20075;-70
2022/12/25 11:11:20;;;;;;;10.65;2.83;;;24.10;58.40;;;;;;5058432;28;20036;-70
2022/12/25 11:13:52;;;;;;;5.68;3.75;;;24.30;52.60;;;;;;5064453;28;20382;-67
2022/12/25 11:16:35;;;;;;;5.43;3.13;;;24.40;51.40;;;;;;5062859;28;20033;-70
2022/12/25 11:19:02;;;;;;;4.80;4.15;;;24.30;47.70;;;;;;5050806;28;20044;-68
2022/12/25 11:21:32;;;;;;;6.47;4.78;;;24.50;44.70;;;;;;5060277;28;20031;-67
2022/12/25 11:24:16;;;;;;;9.48;5.63;;;24.40;41.80;;;;;;5057141;28;20363;-68
2022/12/25 11:26:48;;;;;;;10.48;6.45;;;24.50;49.30;;;;;;5064282;28;20066;-70
2022/12/25 11:29:32;;;;;;;8.10;5.53;;;24.30;49.40;;;;;;5055428;28;20114;-71
2022/12/25 11:32:01;;;;;;;8.73;6.22;;;24.30;50.50;;;;;;5055807;28;20048;-69
2022/12/25 11:34:45;;;;;;;9.27;7.13;;;24.40;49.60;;;;;;5053435;28;20048;-70
2022/12/25 11:37:40;;;;;;;8.63;5.60;;;24.50;46.40;;;;;;5071231;28;20390;-69
2022/12/25 11:40:20;;;;;;;7.65;5.30;;;24.50;46.00;;;;;;5050836;28;20064;-69
2022/12/25 11:42:50;;;;;;;12.48;5.80;;;24.70;48.60;;;;;;5033721;28;20452;-69
2022/12/25 11:45:32;;;;;;;7.85;5.38;;;24.90;51.70;;;;;;5061569;28;20036;-70
2022/12/25 11:48:02;;;;;;;8.10;5.88;;;25.20;49.30;;;;;;5062294;28;20046;-69
2022/12/25 11:50:35;;;;;;;7.40;5.22;;;25.30;52.30;;;;;;5067945;28;20113;-70
2022/12/25 11:53:29;;;;;;;9.05;6.10;;;25.40;49.60;;;;;;5024697;28;20053;-69
2022/12/25 11:56:00;;;;;;;12.65;6.88;;;25.40;52.90;;;;;;4971622;28;20095;-68
2022/12/25 11:58:46;;;;;;;7.60;5.53;;;25.30;53.80;;;;;;4959439;28;20044;-68
2022/12/25 12:01:25;;;;;;;6.68;5.15;;;25.10;53.70;;;;;;4960790;28;20541;-69
2022/12/25 12:03:52;;;;;;;10.63;6.35;;;25.10;54.40;;;;;;4960635;28;20112;-69
2022/12/25 12:06:36;;;;;;;9.07;6.72;;;25.00;53.70;;;;;;4966751;28;20043;-69
2022/12/25 12:09:20;;;;;;;9.85;6.25;;;25.00;53.90;;;;;;4962074;28;20146;-68
2022/12/25 12:11:57;;;;;;;9.70;6.13;;;24.90;51.50;;;;;;4975843;28;20076;-69
2022/12/25 12:14:44;;;;;;;8.75;6.13;;;24.80;51.40;;;;;;4971997;28;20097;-69
2022/12/25 12:17:18;;;;;;;8.15;4.90;;;24.70;52.70;;;;;;4973410;28;20034;-69
2022/12/25 12:19:45;;;;;;;6.43;4.13;;;24.60;52.80;;;;;;4983423;28;20073;-68
2022/12/25 12:22:26;;;;;;;6.38;4.13;;;24.50;53.50;;;;;;4992770;28;20050;-68
2022/12/25 12:25:06;;;;;;;6.68;5.25;;;24.70;56.50;;;;;;5009085;28;20045;-68
2022/12/25 12:27:34;;;;;;;8.00;5.10;;;24.60;56.40;;;;;;5011475;28;20069;-67
2022/12/25 12:30:01;;;;;;;8.07;5.30;;;24.50;55.70;;;;;;5011927;28;20069;-69
2022/12/25 12:32:33;;;;;;;8.30;5.65;;;24.50;56.40;;;;;;5036742;28;20041;-69
2022/12/25 12:35:07;;;;;;;11.35;5.90;;;24.50;56.70;;;;;;5077062;28;20037;-68
2022/12/25 12:37:36;;;;;;;10.07;5.85;;;24.50;55.90;;;;;;5076069;28;20025;-69
2022/12/25 12:40:03;;;;;;;9.10;6.70;;;24.30;55.90;;;;;;5077286;28;20115;-68
2022/12/25 12:42:45;;;;;;;9.88;6.03;;;24.30;56.20;;;;;;5077474;28;20087;-69
2022/12/25 12:45:31;;;;;;;10.18;6.53;;;24.30;57.30;;;;;;5081302;28;20122;-68
2022/12/25 12:47:57;;;;;;;12.15;5.15;;;24.20;57.40;;;;;;5097220;28;20469;-69
2022/12/25 12:50:26;;;;;;;10.10;6.32;;;24.30;58.80;;;;;;5097511;28;20036;-68
2022/12/25 12:52:52;;;;;;;10.05;5.80;;;24.20;58.20;;;;;;5097658;28;20087;-69
2022/12/25 12:55:32;;;;;;;10.30;6.75;;;24.20;57.90;;;;;;5094626;28;20024;-68
2022/12/25 12:58:03;;;;;;;7.50;4.97;;;24.30;59.10;;;;;;5077150;28;20070;-69
2022/12/25 13:00:45;;;;;;;7.40;3.92;;;24.30;57.60;;;;;;5087950;28;20044;-68
2022/12/25 13:03:30;;;;;;;4.50;2.70;;;24.20;54.90;;;;;;5083489;28;20430;-68
2022/12/25 13:06:22;;;;;;;8.73;5.30;;;24.10;58.10;;;;;;5055939;28;20040;-68
2022/12/25 13:09:05;;;;;;;11.65;5.32;;;24.20;57.90;;;;;;5071284;28;20062;-68
2022/12/25 13:11:37;;;;;;;6.35;3.60;;;24.20;58.90;;;;;;5074668;28;20394;-68
2022/12/25 13:14:04;;;;;;;8.02;4.85;;;24.10;57.70;;;;;;5038553;28;20040;-69
2022/12/25 13:16:39;;;;;;;6.80;4.35;;;24.10;56.40;;;;;;5060882;28;20033;-69
2022/12/25 13:19:07;;;;;;;7.50;3.97;;;24.10;58.00;;;;;;5058000;28;20036;-68
2022/12/25 13:21:34;;;;;;;9.52;5.32;;;24.10;58.40;;;;;;5060600;28;20033;-68
2022/12/25 13:24:09;;;;;;;6.35;4.88;;;24.10;58.00;;;;;;5054297;28;20413;-68
2022/12/25 13:26:35;;;;;;;5.38;4.28;;;24.10;58.90;;;;;;5063835;28;20052;-68
2022/12/25 13:29:02;;;;;;;5.93;3.65;;;24.10;59.20;;;;;;5072270;28;20025;-68
2022/12/25 13:31:29;;;;;;;6.75;4.80;;;24.10;58.70;;;;;;5055540;28;20072;-68
2022/12/25 13:34:18;;;;;;;8.32;4.50;;;24.00;58.20;;;;;;5073632;28;20040;-68
2022/12/25 13:36:44;;;;;;;7.70;4.93;;;23.90;59.50;;;;;;5073214;28;20032;-68
2022/12/25 13:39:15;;;;;;;4.95;4.22;;;24.00;55.50;;;;;;5030477;28;20373;-68
2022/12/25 13:42:08;;;;;;;6.75;4.13;;;24.00;58.60;;;;;;5093562;28;20039;-68
2022/12/25 13:44:50;;;;;;;6.77;4.63;;;23.90;59.10;;;;;;5075591;28;20028;-68
2022/12/25 13:47:37;;;;;;;8.60;4.30;;;24.00;59.00;;;;;;5093516;28;20306;-68
2022/12/25 13:50:32;;;;;;;3.92;2.63;;;24.00;59.70;;;;;;5010786;28;20483;-68
2022/12/25 13:53:15;;;;;;;8.02;5.00;;;24.00;58.50;;;;;;4952349;28;20039;-68
2022/12/25 13:55:49;;;;;;;6.45;4.53;;;24.10;59.50;;;;;;4952543;28;20046;-68
2022/12/25 13:58:29;;;;;;;9.32;4.88;;;24.00;59.00;;;;;;4952204;28;20831;-67
2022/12/25 14:01:00;;;;;;;6.40;3.60;;;24.00;57.70;;;;;;4951951;28;20434;-68
2022/12/25 14:03:40;;;;;;;8.40;4.28;;;24.00;59.80;;;;;;4970717;28;20144;-68
2022/12/25 14:06:20;;;;;;;10.77;4.65;;;24.10;59.30;;;;;;4954271;28;20397;-68
2022/12/25 14:08:47;;;;;;;7.88;5.00;;;24.10;59.60;;;;;;4971328;28;20074;-68
2022/12/25 14:11:19;;;;;;;7.97;4.63;;;24.20;59.50;;;;;;4970122;28;20045;-68
2022/12/25 14:13:48;;;;;;;6.67;4.63;;;24.10;59.60;;;;;;4936235;29;20043;-67
2022/12/25 14:16:19;;;;;;;7.82;5.28;;;24.20;59.60;;;;;;4964747;28;20042;-68
2022/12/25 14:18:54;;;;;;;6.65;4.50;;;24.10;59.50;;;;;;4970831;28;20126;-68
2022/12/25 14:21:32;;;;;;;6.03;4.82;;;24.10;59.50;;;;;;4980985;28;20046;-67
2022/12/25 14:23:58;;;;;;;10.73;5.03;;;24.10;59.40;;;;;;4990004;28;20054;-68
2022/12/25 14:26:31;;;;;;;9.13;4.75;;;24.00;59.50;;;;;;4988905;28;20038;-68
2022/12/25 14:29:13;;;;;;;7.40;4.45;;;24.10;59.50;;;;;;5002630;28;20114;-68
2022/12/25 14:31:40;;;;;;;8.80;4.45;;;24.10;59.20;;;;;;5047277;28;20033;-68
2022/12/25 14:34:20;;;;;;;8.32;5.20;;;24.10;59.60;;;;;;5032803;28;20037;-68
2022/12/25 14:36:48;;;;;;;10.60;5.82;;;23.90;59.50;;;;;;5059758;28;20090;-67
2022/12/25 14:39:35;;;;;;;13.55;5.40;;;24.00;59.70;;;;;;5072031;28;20039;-68
2022/12/25 14:42:24;;;;;;;8.15;5.35;;;23.80;60.00;;;;;;5066844;28;20056;-68